Latest Weather Observations for Mount Lofty

IDS60901

Issued at 9:21 pm CDT Friday 6 December 2019 (issued every 10 minutes, with the page automatically refreshed every 10 minutes)

About weather observations | Map of Adelaide area stations | Latest observations for Adelaide area | Other Formats
Station Details ID: 023842 Name: MOUNT LOFTY Lat: -34.98 Lon: 138.71 Height: 685.0 m
Data from the previous 72 hours. | See also: Recent months at Mount Lofty
Date/Time
CDT
Temp
°C
App
Temp
°C
Dew
Point
°C
Rel
Hum
%
Delta-T
°C
Wind Press
QNH
hPa
Press
MSL
hPa
Rain since
9am
mm
Dir  Spd
km/h
Gust
km/h
Spd
kts
Gust
kts
06/09:00pm 9.0 5.9 7.3 89 0.8 ESE 13 22 7 12 - - 0.0
06/08:30pm 9.9 7.7 7.7 86 1.1 ESE 9 17 5 9 - - 0.0
06/08:00pm 11.2 9.3 7.7 79 1.8 SE 7 13 4 7 - - 0.0
06/07:30pm 13.3 12.0 7.7 69 2.9 SSE 4 9 2 5 - - 0.0
06/07:00pm 14.7 13.5 8.0 64 3.5 SSW 4 7 2 4 - - 0.0
06/06:30pm 16.0 14.3 8.2 60 4.1 WSW 7 17 4 9 - - 0.0
06/06:00pm 17.2 15.7 9.1 59 4.4 W 7 15 4 8 - - 0.0
06/05:30pm 18.4 16.9 8.4 52 5.3 SSW 6 13 3 7 - - 0.0
06/05:00pm 19.2 17.9 9.1 52 5.5 WSW 6 15 3 8 - - 0.0
06/04:30pm 17.6 15.8 7.9 53 5.1 S 7 13 4 7 - - 0.0
06/04:00pm 18.9 17.5 8.8 52 5.4 SSW 6 15 3 8 - - 0.0
06/03:30pm 18.7 16.2 6.5 45 6.3 SW 9 20 5 11 - - 0.0
06/03:00pm 19.3 17.8 9.2 52 5.5 WSW 7 13 4 7 - - 0.0
06/02:30pm 18.9 17.3 8.8 52 5.4 WSW 7 13 4 7 - - 0.0
06/02:00pm 18.3 16.4 7.7 50 5.6 SW 7 15 4 8 - - 0.0
06/01:30pm 18.2 16.3 6.7 47 5.9 SW 6 11 3 6 - - 0.0
06/01:00pm 17.0 15.0 7.1 52 5.1 WSW 7 13 4 7 - - 0.0
06/12:30pm 16.8 15.3 8.5 58 4.4 SW 6 11 3 6 - - 0.0
06/12:00pm 16.7 15.3 8.9 60 4.2 WSW 6 11 3 6 - - 0.0
06/11:30am 15.9 14.8 8.4 61 3.9 WSW 4 11 2 6 - - 0.0
06/11:00am 14.7 13.2 8.6 67 3.2 SSW 6 11 3 6 - - 0.0
06/10:30am 14.0 12.5 8.6 70 2.8 SSE 6 11 3 6 - - 0.0
06/10:00am 13.0 11.5 8.3 73 2.4 SSW 6 13 3 7 - - 0.0
06/09:30am 12.1 10.5 8.0 76 2.1 S 6 13 3 7 - - 0.0
06/09:00am 11.0 9.5 8.4 84 1.3 SSE 6 11 3 6 - - 0.0
06/08:30am 8.4 6.6 7.2 92 0.6 SSE 6 13 3 7 - - 0.0
06/08:00am 8.2 6.4 7.3 94 0.4 SSE 6 11 3 6 - - 0.0
06/07:30am 7.9 5.9 7.0 94 0.4 SE 7 15 4 8 - - 0.0
06/07:00am 8.0 5.2 5.3 83 1.3 SE 9 19 5 10 - - 0.0
06/06:30am 6.9 4.8 6.0 94 0.4 SE 6 13 3 7 - - 0.0
06/06:00am 6.9 4.3 6.3 96 0.3 ESE 9 15 5 8 - - 0.0
06/05:30am 6.8 4.5 5.7 93 0.5 ESE 7 11 4 6 - - 0.0
06/05:00am 8.2 5.8 2.4 67 2.5 SE 4 7 2 4 - - 0.0
06/04:30am 9.7 7.1 -1.9 44 4.6 WSW 2 4 1 2 - - 0.0
06/04:00am 11.5 7.5 -7.8 25 6.9 SW 6 17 3 9 - - 0.0
06/03:30am 9.4 6.8 3.4 66 2.7 S 6 11 3 6 - - 0.0
06/03:00am 8.0 5.7 4.9 81 1.4 SSE 6 15 3 8 - - 0.0
06/02:30am 7.7 5.9 7.3 97 0.2 SE 6 9 3 5 - - 0.0
06/02:00am 8.2 6.6 7.8 97 0.2 SE 6 11 3 6 - - 0.0
06/01:30am 9.0 8.0 8.7 98 0.2 SSW 4 7 2 4 - - 0.0
06/01:00am 9.1 7.7 8.8 98 0.2 ESE 6 9 3 5 - - 0.0
06/12:30am 9.3 7.9 8.8 97 0.3 ESE 6 9 3 5 - - 0.0
06/12:00am 10.0 9.2 9.5 97 0.3 ESE 4 6 2 3 - - 0.0
 
Date/Time
CDT
Temp
°C
App
Temp
°C
Dew
Point
°C
Rel
Hum
%
Delta-T
°C
Wind Press
QNH
hPa
Press
MSL
hPa
Rain since
9am
mm
Dir  Spd
km/h
Gust
km/h
Spd
kts
Gust
kts
05/11:30pm 9.9 9.0 9.4 97 0.3 SE 4 6 2 3 - - 0.0
05/11:00pm 10.3 9.1 9.7 96 0.3 ESE 6 9 3 5 - - 0.0
05/10:30pm 10.8 9.5 10.0 95 0.4 ESE 7 9 4 5 - - 0.0
05/10:00pm 11.4 10.3 10.1 92 0.7 ESE 6 9 3 5 - - 0.0
05/09:30pm 12.5 11.9 10.4 87 1.1 SE 4 6 2 3 - - 0.0
05/09:00pm 12.9 13.3 11.3 90 0.9 CALM 0 4 0 2 - - 0.0
05/08:30pm 13.9 13.6 11.6 86 1.3 WNW 4 6 2 3 - - 0.0
05/08:00pm 15.2 14.7 10.8 75 2.4 W 4 6 2 3 - - 0.0
05/07:30pm 16.4 15.6 11.1 71 2.9 W 6 9 3 5 - - 0.0
05/07:00pm 17.4 16.3 10.1 62 4.0 W 6 13 3 7 - - 0.0
05/06:30pm 17.9 16.2 8.5 54 5.0 W 7 15 4 8 - - 0.0
05/06:00pm 18.9 16.9 8.6 51 5.5 WNW 9 20 5 11 - - 0.0
05/05:30pm 18.7 16.1 6.2 44 6.4 W 9 15 5 8 - - 0.0
05/05:00pm 18.4 15.5 6.6 46 6.1 WNW 11 19 6 10 - - 0.0
05/04:30pm 19.1 16.6 8.1 49 5.9 WNW 11 24 6 13 - - 0.0
05/04:00pm 18.9 16.0 6.7 45 6.3 W 11 24 6 13 - - 0.0
05/03:30pm 18.7 15.0 8.1 50 5.6 WNW 17 28 9 15 - - 0.0
05/03:00pm 18.8 15.1 7.9 49 5.8 WNW 17 30 9 16 - - 0.0
05/02:30pm 18.6 15.1 7.4 48 5.9 W 15 39 8 21 - - 0.0
05/02:00pm 18.8 15.4 7.6 48 5.9 W 15 30 8 16 - - 0.0
05/01:30pm 18.7 16.0 8.9 53 5.3 W 13 28 7 15 - - 0.0
05/01:00pm 18.1 15.0 8.9 55 5.0 WNW 15 30 8 16 - - 0.0
05/12:30pm 17.0 13.4 8.4 57 4.6 WNW 17 30 9 16 - - 0.0
05/12:00pm 17.2 14.5 10.3 64 3.8 WNW 15 28 8 15 - - 0.0
05/11:30am 16.1 12.9 8.6 61 4.0 WNW 15 28 8 15 - - 0.0
05/11:00am 14.8 11.5 9.6 71 2.8 WNW 17 32 9 17 - - 0.0
05/10:30am 14.7 11.9 9.9 73 2.6 WNW 15 24 8 13 - - 0.0
05/10:00am 14.0 12.1 10.6 80 1.8 W 11 22 6 12 - - 0.0
05/09:30am 13.2 11.3 10.6 84 1.4 WNW 11 20 6 11 - - 0.0
05/09:00am 12.2 10.3 11.9 98 0.2 WNW 13 22 7 12 - - 0.0
05/08:30am 10.7 8.4 10.5 99 0.1 WNW 13 22 7 12 - - 0.0
05/08:00am 10.3 7.9 10.1 99 0.1 WNW 13 26 7 14 - - 0.0
05/07:30am 10.1 7.3 10.0 99 0.1 WNW 15 24 8 13 - - 0.0
05/07:00am 9.0 6.3 8.9 99 0.1 WNW 13 22 7 12 - - 0.0
05/06:30am 9.1 6.0 9.0 99 0.1 WNW 15 24 8 13 - - 0.0
05/06:00am 10.0 6.8 9.9 99 0.1 WNW 17 28 9 15 - - 0.0
05/05:30am 10.0 6.8 9.9 99 0.1 WNW 17 26 9 14 - - 0.0
05/05:00am 10.2 6.7 10.1 99 0.1 WNW 19 28 10 15 - - 0.0
05/04:30am 10.1 6.5 10.0 99 0.1 WNW 19 28 10 15 - - 0.0
05/04:00am 10.3 7.1 10.1 99 0.1 WNW 17 24 9 13 - - 0.0
05/03:30am 10.4 7.7 10.2 99 0.1 WNW 15 22 8 12 - - 0.0
05/03:00am 10.5 8.2 10.3 99 0.1 WNW 13 22 7 12 - - 0.0
05/02:30am 10.9 9.1 10.7 99 0.1 W 11 20 6 11 - - 0.0
05/02:00am 10.9 9.1 10.7 99 0.1 W 11 20 6 11 - - 0.0
05/01:30am 10.9 9.0 10.6 98 0.2 W 11 17 6 9 - - 0.0
05/01:00am 10.9 9.4 10.6 98 0.2 W 9 19 5 10 - - 0.0
05/12:30am 10.4 8.6 9.6 95 0.4 W 9 15 5 8 - - 0.0
05/12:00am 10.1 7.9 7.7 85 1.2 W 9 13 5 7 - - 0.0
 
Date/Time
CDT
Temp
°C
App
Temp
°C
Dew
Point
°C
Rel
Hum
%
Delta-T
°C
Wind Press
QNH
hPa
Press
MSL
hPa
Rain since
9am
mm
Dir  Spd
km/h
Gust
km/h
Spd
kts
Gust
kts
04/11:30pm 10.4 8.0 6.9 79 1.7 W 9 13 5 7 - - 0.0
04/11:00pm 10.5 8.0 6.6 77 1.9 W 9 17 5 9 - - 0.0
04/10:30pm 10.8 8.3 6.4 74 2.1 WNW 9 19 5 10 - - 0.0
04/10:00pm 11.4 8.7 5.5 67 2.8 W 9 20 5 11 - - 0.0
04/09:30pm 11.7 8.7 6.2 69 2.7 WNW 11 20 6 11 - - 0.0
04/09:00pm 11.6 9.2 8.8 83 1.4 WNW 11 19 6 10 - - 0.0
04/08:30pm 12.2 10.1 9.9 86 1.2 WNW 11 19 6 10 - - 0.0
04/08:00pm 13.2 11.7 10.4 83 1.5 WNW 9 19 5 10 - - 0.0
04/07:30pm 14.1 12.8 10.1 77 2.2 W 7 15 4 8 - - 0.0
04/07:00pm 15.0 13.3 10.0 72 2.7 WNW 9 17 5 9 - - 0.0
04/06:30pm 16.0 14.3 9.9 67 3.3 WNW 9 15 5 8 - - 0.0
04/06:00pm 16.6 14.4 9.3 62 3.9 WNW 11 22 6 12 - - 0.0
04/05:30pm 17.3 15.2 9.7 61 4.1 W 11 24 6 13 - - 0.0
04/05:00pm 17.0 14.9 9.7 62 4.0 WNW 11 26 6 14 - - 0.0
04/04:30pm 17.3 14.2 8.7 57 4.6 WNW 15 26 8 14 - - 0.0
04/04:00pm 17.9 15.5 10.0 60 4.3 WNW 13 28 7 15 - - 0.0
04/03:30pm 17.4 15.1 9.1 58 4.5 W 11 22 6 12 - - 0.0
04/03:00pm 16.6 12.9 8.1 57 4.5 WNW 17 28 9 15 - - 0.0
04/02:30pm 16.3 13.6 8.8 61 4.0 WNW 13 30 7 16 - - 0.0
04/02:00pm 16.6 14.1 9.8 64 3.7 WNW 13 26 7 14 - - 0.0
04/01:30pm 15.6 12.2 9.1 65 3.5 WNW 17 28 9 15 - - 0.0
04/01:00pm 14.2 11.0 8.4 68 3.0 WNW 15 24 8 13 - - 0.0
04/12:30pm 13.7 10.5 8.5 71 2.7 WNW 15 24 8 13 - - 0.0
04/12:00pm 13.6 10.7 9.8 78 2.0 WNW 15 28 8 15 - - 0.0
04/11:30am 12.9 9.8 9.0 77 2.0 WNW 15 24 8 13 - - 0.0
04/11:00am 12.4 9.3 8.9 79 1.8 WNW 15 26 8 14 - - 0.0
04/10:30am 12.1 9.1 9.3 83 1.5 WNW 15 26 8 14 - - 0.0
04/10:00am 11.4 8.4 9.3 87 1.1 WNW 15 28 8 15 - - 0.0
04/09:30am 10.6 7.1 8.7 88 1.0 WNW 17 28 9 15 - - 0.0
04/09:00am 10.4 6.8 8.5 88 1.0 WNW 17 28 9 15 - - 0.0
04/08:30am 9.9 6.3 8.5 91 0.7 WNW 17 30 9 16 - - 0.0
04/08:00am 9.6 6.8 8.7 94 0.5 WNW 13 24 7 13 - - 0.0
04/07:30am 9.1 5.5 8.5 96 0.3 WNW 17 32 9 17 - - 0.0
04/07:00am 9.0 6.1 8.2 95 0.4 WNW 13 24 7 13 - - 0.0
04/06:30am 8.4 5.0 7.6 95 0.4 WNW 15 24 8 13 - - 0.0
04/06:00am 8.2 5.2 7.6 96 0.3 WNW 13 20 7 11 - - 0.0
04/05:30am 8.3 5.6 7.5 95 0.4 WNW 11 20 6 11 - - 0.0
04/05:00am 8.3 5.6 7.5 95 0.4 W 11 20 6 11 - - 0.0
04/04:30am 8.2 5.5 7.3 94 0.4 W 11 19 6 10 - - 0.0
04/04:00am 8.3 5.6 7.4 94 0.4 WNW 11 19 6 10 - - 0.0
04/03:30am 8.5 6.4 8.1 97 0.2 W 9 22 5 12 - - 0.0
04/03:00am 8.7 6.6 8.3 97 0.2 W 9 19 5 10 - - 0.0
04/02:30am 8.8 6.7 8.4 97 0.2 W 9 19 5 10 - - 0.0
04/02:00am 9.0 7.4 8.6 97 0.2 W 7 13 4 7 - - 0.0
04/01:30am 9.0 7.0 8.7 98 0.2 W 9 20 5 11 - - 0.0
04/01:00am 9.1 7.1 8.8 98 0.2 W 9 17 5 9 - - 0.0
04/12:30am 9.2 7.3 9.1 99 0.1 W 9 17 5 9 - - 0.0
04/12:00am 9.3 7.8 9.2 99 0.1 W 7 13 4 7 - - 0.0
 
Date/Time
CDT
Temp
°C
App
Temp
°C
Dew
Point
°C
Rel
Hum
%
Delta-T
°C
Wind Press
QNH
hPa
Press
MSL
hPa
Rain since
9am
mm
Dir  Spd
km/h
Gust
km/h
Spd
kts
Gust
kts
03/11:30pm 9.4 7.9 9.3 99 0.1 W 7 13 4 7 - - 0.0
03/11:00pm 9.7 8.3 9.6 99 0.1 W 7 17 4 9 - - 0.0
03/10:30pm 10.1 8.4 10.0 99 0.1 W 9 19 5 10 - - 0.0
03/10:00pm 9.9 8.5 9.6 98 0.2 W 7 17 4 9 - - 0.0
03/09:30pm 10.0 8.3 9.7 98 0.2 W 9 20 5 11 - - 0.0

Latest Capital City Observations: Canberra | Sydney | Melbourne | Brisbane | Adelaide | Perth | Hobart | Darwin

Other formats

Comma delimited format used in spreadsheet applications
http://www.bom.gov.au/fwo/IDS60901/IDS60901.95678.axf

JavaScript Object Notation format (JSON) in row-major order
http://www.bom.gov.au/fwo/IDS60901/IDS60901.95678.json

Data quality

Most of these data are generated automatically and are frequently updated. Quality checks on data are not normally performed. It is possible for incorrect values to appear. Refer to information at About Latest Weather Observations and please check the disclaimer before using these data.